createdAt,value
2022-11-23T00:01:58.128Z,46.50
2022-11-23T00:04:15.317Z,62.60
2022-11-23T00:06:29.444Z,51.90
2022-11-23T00:08:42.879Z,49.90
2022-11-23T00:11:01.531Z,46.80
2022-11-23T00:13:14.918Z,41.40
2022-11-23T00:15:28.396Z,32.40
2022-11-23T00:17:42.180Z,35.40
2022-11-23T00:19:55.448Z,57.60
2022-11-23T00:22:10.031Z,44.90
2022-11-23T00:24:23.491Z,49.80
2022-11-23T00:26:36.959Z,47.60
2022-11-23T00:28:50.284Z,48.80
2022-11-23T00:31:03.791Z,42.70
2022-11-23T00:33:17.253Z,54.60
2022-11-23T00:35:31.095Z,45.80
2022-11-23T00:37:46.496Z,58.10
2022-11-23T00:39:59.795Z,48.80
2022-11-23T00:42:13.307Z,47.60
2022-11-23T00:44:26.790Z,65.60
2022-11-23T00:46:40.051Z,55.40
2022-11-23T00:48:54.944Z,40.00
2022-11-23T00:51:09.629Z,43.00
2022-11-23T00:53:22.909Z,56.30
2022-11-23T00:55:36.301Z,67.90
2022-11-23T00:57:49.608Z,56.30
2022-11-23T01:00:03.455Z,57.70
2022-11-23T01:02:16.931Z,62.60
2022-11-23T01:04:30.683Z,78.80
2022-11-23T01:06:46.248Z,54.20
2022-11-23T01:09:03.523Z,61.00
2022-11-23T01:11:17.911Z,36.00
2022-11-23T01:13:31.435Z,41.80
2022-11-23T01:15:54.370Z,63.40
2022-11-23T01:18:07.816Z,55.80
2022-11-23T01:20:21.975Z,42.10
2022-11-23T01:22:35.444Z,61.10
2022-11-23T01:24:48.757Z,69.70
2022-11-23T01:27:02.452Z,49.10
2022-11-23T01:29:16.217Z,54.10
2022-11-23T01:31:30.256Z,53.30
2022-11-23T01:33:44.675Z,57.70
2022-11-23T01:35:57.975Z,61.30
2022-11-23T01:38:17.814Z,62.70
2022-11-23T01:40:31.771Z,92.40
2022-11-23T01:42:53.166Z,99.20
2022-11-23T01:45:35.183Z,105.10
2022-11-23T01:47:48.661Z,115.90
2022-11-23T01:50:01.978Z,106.40
2022-11-23T01:52:19.319Z,104.60
2022-11-23T01:54:36.703Z,106.20
2022-11-23T01:56:55.075Z,83.90
2022-11-23T01:59:14.007Z,113.60
2022-11-23T02:01:27.664Z,100.80
2022-11-23T02:03:43.758Z,89.50
2022-11-23T02:06:01.552Z,167.20
2022-11-23T02:08:16.283Z,113.00
2022-11-23T02:10:31.905Z,131.40
2022-11-23T02:12:45.136Z,120.70
2022-11-23T02:14:58.607Z,115.70
2022-11-23T02:17:12.541Z,117.70
2022-11-23T02:19:37.522Z,160.00
2022-11-23T02:21:52.762Z,158.40
2022-11-23T02:24:11.212Z,133.90
2022-11-23T02:26:28.588Z,133.40
2022-11-23T02:28:46.439Z,149.20
2022-11-23T02:31:00.851Z,130.10
2022-11-23T02:33:14.310Z,116.90
2022-11-23T02:35:27.726Z,113.00
2022-11-23T02:37:43.913Z,149.00
2022-11-23T02:40:00.086Z,137.80
2022-11-23T02:42:13.901Z,120.10
2022-11-23T02:44:37.816Z,129.20
2022-11-23T02:46:52.559Z,149.20
2022-11-23T02:49:05.870Z,180.50
2022-11-23T02:51:19.718Z,162.70
2022-11-23T02:53:32.978Z,176.70
2022-11-23T02:55:46.582Z,183.50
2022-11-23T02:57:59.952Z,177.10
2022-11-23T03:00:16.722Z,96.60
2022-11-23T03:02:30.430Z,94.60
2022-11-23T03:04:44.319Z,32.00
2022-11-23T03:06:58.179Z,38.80
2022-11-23T03:09:12.918Z,35.10
2022-11-23T03:11:28.414Z,26.60
2022-11-23T03:13:42.120Z,22.20
2022-11-23T03:15:58.000Z,22.30
2022-11-23T03:18:12.972Z,15.00
2022-11-23T03:20:26.692Z,20.20
2022-11-23T03:22:41.158Z,18.10
2022-11-23T03:24:54.681Z,24.60
2022-11-23T03:27:08.925Z,14.80
2022-11-23T03:29:23.530Z,16.00
2022-11-23T03:31:36.813Z,14.80
2022-11-23T03:33:51.667Z,16.20
2022-11-23T03:36:05.451Z,13.90
2022-11-23T03:38:25.303Z,16.70
2022-11-23T03:40:39.168Z,23.20
2022-11-23T03:43:12.710Z,17.00
2022-11-23T03:45:26.615Z,17.60
2022-11-23T03:47:40.869Z,22.80
2022-11-23T03:49:54.661Z,17.30
2022-11-23T03:52:09.179Z,37.00
2022-11-23T03:54:23.848Z,15.00
2022-11-23T03:56:39.702Z,15.30
2022-11-23T03:58:56.761Z,18.10
2022-11-23T04:01:10.997Z,24.40
2022-11-23T04:03:26.484Z,17.80
2022-11-23T04:06:09.203Z,18.10
2022-11-23T04:08:45.821Z,21.40
2022-11-23T04:11:06.304Z,11.90
2022-11-23T04:13:25.037Z,19.00
2022-11-23T04:15:39.228Z,19.10
2022-11-23T04:17:53.270Z,30.30
2022-11-23T04:20:07.334Z,20.90
2022-11-23T04:22:22.372Z,21.10
2022-11-23T04:24:36.557Z,15.10
2022-11-23T04:26:50.853Z,19.70
2022-11-23T04:29:05.270Z,22.80
2022-11-23T04:31:23.920Z,14.30
2022-11-23T04:33:49.164Z,13.30
2022-11-23T04:36:04.496Z,17.50
2022-11-23T04:38:18.001Z,11.90
2022-11-23T04:40:33.096Z,12.20
2022-11-23T04:42:50.874Z,17.50
2022-11-23T04:45:04.912Z,20.50
2022-11-23T04:47:19.153Z,15.20
2022-11-23T04:49:34.237Z,13.40
2022-11-23T04:51:48.625Z,10.90
2022-11-23T04:54:03.036Z,18.40
2022-11-23T04:56:25.763Z,14.30
2022-11-23T04:58:39.551Z,13.70
2022-11-23T05:00:54.519Z,14.00
2022-11-23T05:03:08.867Z,17.40
2022-11-23T05:05:26.353Z,14.20
2022-11-23T05:07:40.701Z,18.20
2022-11-23T05:09:55.703Z,9.10
2022-11-23T05:12:10.540Z,15.30
2022-11-23T05:14:24.457Z,16.10
2022-11-23T05:16:42.876Z,10.70
2022-11-23T05:18:56.509Z,14.90
2022-11-23T05:21:13.246Z,11.60
2022-11-23T05:23:27.464Z,14.80
2022-11-23T05:25:42.374Z,16.30
2022-11-23T05:27:59.186Z,13.80
2022-11-23T05:30:19.501Z,18.70
2022-11-23T05:32:33.949Z,22.70
2022-11-23T05:34:48.811Z,14.30
2022-11-23T05:37:02.758Z,16.60
2022-11-23T05:39:16.462Z,10.10
2022-11-23T05:41:32.225Z,16.30
2022-11-23T05:43:47.575Z,11.30
2022-11-23T05:46:07.237Z,14.80
2022-11-23T05:48:21.781Z,11.70
2022-11-23T05:50:42.471Z,9.60
2022-11-23T05:53:14.258Z,10.50
2022-11-23T05:55:28.548Z,10.40
2022-11-23T05:57:43.219Z,11.70
2022-11-23T05:59:57.262Z,10.50
2022-11-23T06:02:25.792Z,9.70
2022-11-23T06:04:42.388Z,9.90
2022-11-23T06:07:02.251Z,9.60
2022-11-23T06:09:23.870Z,16.30
2022-11-23T06:11:39.675Z,15.00
2022-11-23T06:13:58.770Z,9.10
2022-11-23T06:16:12.495Z,8.60
2022-11-23T06:18:34.312Z,13.10
2022-11-23T06:20:48.427Z,6.80
2022-11-23T06:23:02.215Z,8.50
2022-11-23T06:25:16.704Z,8.00
2022-11-23T06:27:36.400Z,10.30
2022-11-23T06:29:53.799Z,7.40
2022-11-23T06:32:09.303Z,9.50
2022-11-23T06:34:22.761Z,8.50
2022-11-23T06:36:36.768Z,10.30
2022-11-23T06:38:50.085Z,6.90
2022-11-23T06:41:08.173Z,7.90
2022-11-23T06:43:21.745Z,5.40
2022-11-23T06:45:35.693Z,8.50
2022-11-23T06:47:52.137Z,8.20
2022-11-23T06:50:05.537Z,5.80
2022-11-23T06:52:19.148Z,7.10
2022-11-23T06:54:32.463Z,7.70
2022-11-23T06:56:46.977Z,3.20
2022-11-23T06:59:00.975Z,8.10
2022-11-23T07:01:14.995Z,4.40
2022-11-23T07:03:33.944Z,4.70
2022-11-23T07:05:51.900Z,7.30
2022-11-23T07:08:06.810Z,3.70
2022-11-23T07:10:21.912Z,5.60
2022-11-23T07:12:39.574Z,5.50
2022-11-23T07:14:53.649Z,5.70
2022-11-23T07:17:07.027Z,5.60
2022-11-23T07:19:21.909Z,4.30
2022-11-23T07:21:36.137Z,4.60
2022-11-23T07:23:49.527Z,10.70
2022-11-23T07:26:03.017Z,10.30
2022-11-23T07:28:18.049Z,11.20
2022-11-23T07:30:31.920Z,9.60
2022-11-23T07:32:45.206Z,8.40
2022-11-23T07:35:00.663Z,6.10
2022-11-23T07:37:14.372Z,4.10
2022-11-23T07:39:42.249Z,5.10
2022-11-23T07:44:34.749Z,5.30
2022-11-23T07:46:48.467Z,7.50
2022-11-23T07:49:03.583Z,4.70
2022-11-23T07:51:17.564Z,3.60
2022-11-23T07:53:30.738Z,7.30
2022-11-23T07:55:44.522Z,7.90
2022-11-23T07:58:00.707Z,5.40
2022-11-23T08:00:16.183Z,9.10
2022-11-23T08:02:29.913Z,8.30
2022-11-23T08:04:43.401Z,3.30
2022-11-23T08:06:56.986Z,4.90
2022-11-23T08:09:10.356Z,3.20
2022-11-23T08:11:23.655Z,2.70
2022-11-23T08:13:38.430Z,3.20
2022-11-23T08:15:55.441Z,12.40
2022-11-23T08:18:10.212Z,28.90
2022-11-23T08:20:23.739Z,22.00
2022-11-23T08:22:37.256Z,21.90
2022-11-23T08:24:50.814Z,7.60
2022-11-23T08:27:04.495Z,3.00
2022-11-23T08:29:18.168Z,6.10
2022-11-23T08:31:31.608Z,4.50
2022-11-23T08:33:45.532Z,6.10
2022-11-23T08:35:58.985Z,4.90
2022-11-23T08:38:13.554Z,5.60
2022-11-23T08:40:27.138Z,6.00
2022-11-23T08:42:40.607Z,7.70
2022-11-23T08:44:54.089Z,9.70
2022-11-23T08:47:07.499Z,5.50
2022-11-23T08:49:20.961Z,2.90
2022-11-23T08:51:34.820Z,5.00
2022-11-23T08:53:48.312Z,5.30
2022-11-23T08:56:03.734Z,5.00
2022-11-23T08:58:17.207Z,4.90
2022-11-23T09:00:31.077Z,1.50
2022-11-23T09:02:44.439Z,3.30
2022-11-23T09:04:57.900Z,5.20
2022-11-23T09:07:11.500Z,2.60
2022-11-23T09:09:25.183Z,5.80
2022-11-23T09:11:38.953Z,4.10
2022-11-23T09:13:52.511Z,3.30
2022-11-23T09:16:06.893Z,4.00
2022-11-23T09:18:20.279Z,2.20
2022-11-23T09:20:33.710Z,2.20
2022-11-23T09:22:47.217Z,3.90
2022-11-23T09:25:00.617Z,6.00
2022-11-23T09:27:14.276Z,6.10
2022-11-23T09:29:28.733Z,5.40
2022-11-23T09:31:42.347Z,4.00
2022-11-23T09:33:58.268Z,4.60
2022-11-23T09:36:12.195Z,3.80
2022-11-23T09:38:38.579Z,9.50
2022-11-23T09:41:06.403Z,12.00
2022-11-23T09:43:44.342Z,15.20
2022-11-23T09:46:01.027Z,10.80
2022-11-23T09:48:39.800Z,9.30
2022-11-23T09:50:59.264Z,9.40
2022-11-23T09:53:16.935Z,12.20
2022-11-23T09:55:37.563Z,9.50
2022-11-23T09:57:52.641Z,5.20
2022-11-23T10:00:09.234Z,5.60
2022-11-23T10:02:27.221Z,3.80
2022-11-23T10:04:41.744Z,2.80
2022-11-23T10:07:01.075Z,5.40
2022-11-23T10:09:33.225Z,3.80
2022-11-23T10:12:07.740Z,3.80
2022-11-23T10:14:34.863Z,2.80
2022-11-23T10:16:56.263Z,7.70
2022-11-23T10:19:18.664Z,9.80
2022-11-23T10:21:40.870Z,3.60
2022-11-23T10:23:59.285Z,3.90
2022-11-23T10:26:17.965Z,5.90
2022-11-23T10:28:33.544Z,2.40
2022-11-23T10:30:46.921Z,3.30
2022-11-23T10:33:05.992Z,2.00
2022-11-23T10:35:21.663Z,4.50
2022-11-23T10:37:35.799Z,3.60
2022-11-23T10:39:49.203Z,1.80
2022-11-23T10:42:06.804Z,6.10
2022-11-23T10:44:33.754Z,8.00
2022-11-23T10:46:47.866Z,7.40
2022-11-23T10:49:12.962Z,7.00
2022-11-23T10:51:30.919Z,3.20
2022-11-23T10:53:44.396Z,4.70
2022-11-23T10:56:01.226Z,3.80
2022-11-23T10:58:31.706Z,2.90
2022-11-23T11:00:48.892Z,4.00
2022-11-23T11:03:04.608Z,5.30
2022-11-23T11:06:07.113Z,3.90
2022-11-23T11:08:15.623Z,5.00
2022-11-23T11:10:46.177Z,8.70
2022-11-23T11:12:59.474Z,5.60
2022-11-23T11:15:22.017Z,10.40
2022-11-23T11:17:37.541Z,8.30
2022-11-23T11:19:50.927Z,3.80
2022-11-23T11:22:05.270Z,6.20
2022-11-23T11:24:24.219Z,6.70
2022-11-23T11:26:38.868Z,6.40
2022-11-23T11:28:55.186Z,5.10
2022-11-23T11:31:25.952Z,8.90
2022-11-23T11:33:46.773Z,6.70
2022-11-23T11:36:03.327Z,5.80
2022-11-23T11:38:21.695Z,7.90
2022-11-23T11:40:39.078Z,5.20
2022-11-23T11:42:59.002Z,6.20
2022-11-23T11:45:20.001Z,6.20
2022-11-23T11:47:37.636Z,3.30
2022-11-23T11:49:54.493Z,4.20
2022-11-23T11:52:12.419Z,6.70
2022-11-23T11:54:32.317Z,7.70
2022-11-23T11:56:49.898Z,2.80
2022-11-23T11:59:10.769Z,5.30
2022-11-23T12:01:39.059Z,2.50
2022-11-23T12:03:59.253Z,3.90
2022-11-23T12:06:23.656Z,4.70
2022-11-23T12:08:49.968Z,4.10
2022-11-23T12:11:06.758Z,4.90
2022-11-23T12:13:23.066Z,4.10
2022-11-23T12:15:50.738Z,8.00
2022-11-23T12:18:29.147Z,11.10
2022-11-23T12:20:51.117Z,3.80
2022-11-23T12:23:27.663Z,7.00
2022-11-23T12:25:43.998Z,3.00
2022-11-23T12:28:06.889Z,7.10
2022-11-23T12:30:32.773Z,1.10
2022-11-23T12:32:57.374Z,2.60
2022-11-23T12:35:28.176Z,4.70
2022-11-23T12:37:51.927Z,5.10
2022-11-23T12:40:26.616Z,5.70
2022-11-23T12:42:46.105Z,2.00
2022-11-23T12:45:20.380Z,3.30
2022-11-23T12:47:46.709Z,3.30
2022-11-23T12:50:06.644Z,3.50
2022-11-23T12:52:39.210Z,3.90
2022-11-23T12:55:05.028Z,5.10
2022-11-23T12:57:24.333Z,4.60
2022-11-23T12:59:47.252Z,1.80
2022-11-23T13:02:13.989Z,5.50
2022-11-23T13:04:49.228Z,7.30
2022-11-23T13:07:31.400Z,3.20
2022-11-23T13:10:07.050Z,4.10
2022-11-23T13:12:45.479Z,1.70
2022-11-23T13:15:09.957Z,2.40
2022-11-23T13:17:36.656Z,4.50
2022-11-23T13:20:21.362Z,3.70
2022-11-23T13:22:36.550Z,5.20
2022-11-23T13:25:22.995Z,2.10
2022-11-23T13:28:00.906Z,6.00
2022-11-23T13:30:45.644Z,3.00
2022-11-23T13:33:04.237Z,7.20
2022-11-23T13:35:45.597Z,2.90
2022-11-23T13:38:39.632Z,2.70
2022-11-23T13:40:52.776Z,1.50
2022-11-23T13:43:08.279Z,1.40
2022-11-23T13:45:38.350Z,2.90
2022-11-23T13:48:54.786Z,3.70
2022-11-23T13:51:05.888Z,3.80
2022-11-23T13:53:30.139Z,2.00
2022-11-23T13:55:44.271Z,1.90
2022-11-23T13:58:26.326Z,2.50
2022-11-23T14:00:57.029Z,4.90
2022-11-23T14:03:42.990Z,3.70
2022-11-23T14:06:05.576Z,7.90
2022-11-23T14:10:32.997Z,4.30
2022-11-23T14:12:52.795Z,1.00
2022-11-23T14:15:16.752Z,6.40
2022-11-23T14:17:59.873Z,2.00
2022-11-23T14:20:36.457Z,1.60
2022-11-23T14:22:59.961Z,2.50
2022-11-23T14:25:32.928Z,2.30
2022-11-23T14:30:24.126Z,5.40
2022-11-23T14:35:12.652Z,6.30
2022-11-23T14:37:36.749Z,3.00
2022-11-23T14:40:07.424Z,4.10
2022-11-23T14:42:23.810Z,4.00
2022-11-23T14:44:38.972Z,1.30
2022-11-23T14:47:05.136Z,2.50
2022-11-23T14:49:21.360Z,7.10
2022-11-23T14:51:34.994Z,7.00
2022-11-23T14:53:50.169Z,2.60
2022-11-23T14:56:04.178Z,6.40
2022-11-23T14:58:24.867Z,3.80
2022-11-23T15:00:43.395Z,2.20
2022-11-23T15:02:58.403Z,1.10
2022-11-23T15:05:21.997Z,2.40
2022-11-23T15:07:46.946Z,3.60
2022-11-23T15:10:08.803Z,6.70
2022-11-23T15:12:44.017Z,2.50
2022-11-23T15:14:58.599Z,3.40
2022-11-23T15:17:25.423Z,2.70
2022-11-23T15:19:38.779Z,2.40
2022-11-23T15:21:52.644Z,3.10
2022-11-23T15:24:06.628Z,4.20
2022-11-23T15:26:46.202Z,3.60
2022-11-23T15:28:56.938Z,1.00
2022-11-23T15:31:29.698Z,5.80
2022-11-23T15:33:43.244Z,1.40
2022-11-23T15:35:58.109Z,1.90
2022-11-23T15:38:20.458Z,6.70
2022-11-23T15:40:39.502Z,2.30
2022-11-23T15:42:54.737Z,2.40
2022-11-23T15:45:08.428Z,2.90
2022-11-23T15:47:28.382Z,3.10
2022-11-23T15:49:45.469Z,3.90
2022-11-23T15:52:05.352Z,2.40
2022-11-23T15:54:24.483Z,4.90
2022-11-23T15:56:40.739Z,3.00
2022-11-23T15:58:56.006Z,2.60
2022-11-23T16:01:17.564Z,2.60
2022-11-23T16:03:53.693Z,2.00
2022-11-23T16:06:31.740Z,4.00
2022-11-23T16:08:45.254Z,2.90
2022-11-23T16:11:01.817Z,3.50
2022-11-23T16:13:40.432Z,5.80
2022-11-23T16:16:05.648Z,4.50
2022-11-23T16:18:29.221Z,2.90
2022-11-23T16:20:46.373Z,2.70
2022-11-23T16:23:02.751Z,3.30
2022-11-23T16:25:29.876Z,3.80
2022-11-23T16:27:43.338Z,6.40
2022-11-23T16:30:02.694Z,6.30
2022-11-23T16:32:28.930Z,3.80
2022-11-23T16:34:45.729Z,5.50
2022-11-23T16:37:00.429Z,2.80
2022-11-23T16:39:14.083Z,5.30
2022-11-23T16:41:27.353Z,3.50
2022-11-23T16:43:40.659Z,3.30
2022-11-23T16:45:55.738Z,6.10
2022-11-23T16:48:26.322Z,3.60
2022-11-23T16:50:40.414Z,6.70
2022-11-23T16:52:53.792Z,2.10
2022-11-23T16:55:07.211Z,2.90
2022-11-23T16:57:27.444Z,3.30
2022-11-23T16:59:41.548Z,3.90
2022-11-23T17:01:57.474Z,1.60
2022-11-23T17:04:12.018Z,8.80
2022-11-23T17:06:26.971Z,4.70
2022-11-23T17:08:40.484Z,7.70
2022-11-23T17:10:54.576Z,3.70
2022-11-23T17:13:09.739Z,4.80
2022-11-23T17:15:24.998Z,4.50
2022-11-23T17:17:38.852Z,1.60
2022-11-23T17:19:53.304Z,1.00
2022-11-23T17:22:06.638Z,5.80
2022-11-23T17:24:20.446Z,4.70
2022-11-23T17:26:40.545Z,6.90
2022-11-23T17:28:54.071Z,8.80
2022-11-23T17:31:09.368Z,7.90
2022-11-23T17:33:22.952Z,3.90
2022-11-23T17:35:38.278Z,2.60
2022-11-23T17:37:52.013Z,3.20
2022-11-23T17:40:05.616Z,2.70
2022-11-23T17:42:20.150Z,9.30
2022-11-23T17:44:33.692Z,2.90
2022-11-23T17:46:47.604Z,5.50
2022-11-23T17:49:03.619Z,3.80
2022-11-23T17:51:19.559Z,4.80
2022-11-23T17:53:33.001Z,5.10
2022-11-23T17:55:46.557Z,1.80
2022-11-23T17:58:00.120Z,6.70
2022-11-23T18:00:22.993Z,4.30
2022-11-23T18:04:47.059Z,8.50
2022-11-23T18:07:00.391Z,3.60
2022-11-23T18:09:14.920Z,3.50
2022-11-23T18:11:29.717Z,3.70
2022-11-23T18:13:43.815Z,5.40
2022-11-23T18:15:57.298Z,3.50
2022-11-23T18:18:10.734Z,4.90
2022-11-23T18:20:24.546Z,6.20
2022-11-23T18:22:38.178Z,5.80
2022-11-23T18:24:51.800Z,3.50
2022-11-23T18:27:05.246Z,1.90
2022-11-23T18:29:19.276Z,3.90
2022-11-23T18:31:32.739Z,5.20
2022-11-23T18:33:46.469Z,2.70
2022-11-23T18:36:05.049Z,2.70
2022-11-23T18:38:18.785Z,4.00
2022-11-23T18:40:32.142Z,4.30
2022-11-23T18:42:45.435Z,64.20
2022-11-23T18:44:58.888Z,176.80
2022-11-23T18:47:12.281Z,130.00
2022-11-23T18:49:25.661Z,96.20
2022-11-23T18:51:42.683Z,80.50
2022-11-23T18:53:56.872Z,51.10
2022-11-23T18:56:12.534Z,55.30
2022-11-23T18:58:26.028Z,64.50
2022-11-23T19:00:39.263Z,185.70
2022-11-23T19:02:57.921Z,202.60
2022-11-23T19:05:12.371Z,174.60
2022-11-23T19:07:27.375Z,20.30
2022-11-23T19:09:41.130Z,21.90
2022-11-23T19:11:54.516Z,16.00
2022-11-23T19:14:08.044Z,121.80
2022-11-23T19:16:23.569Z,104.10
2022-11-23T19:18:37.052Z,62.40
2022-11-23T19:20:50.573Z,26.60
2022-11-23T19:23:04.254Z,35.10
2022-11-23T19:25:19.124Z,19.30
2022-11-23T19:27:33.989Z,19.20
2022-11-23T19:29:47.630Z,38.50
2022-11-23T19:32:01.124Z,33.00
2022-11-23T19:34:14.624Z,142.40
2022-11-23T19:36:29.005Z,113.60
2022-11-23T19:38:42.752Z,26.50
2022-11-23T19:41:02.227Z,23.50
2022-11-23T19:43:15.599Z,33.20
2022-11-23T19:45:31.381Z,6.80
2022-11-23T19:47:45.113Z,131.90
2022-11-23T19:49:58.402Z,114.80
2022-11-23T19:52:12.060Z,55.80
2022-11-23T19:54:25.498Z,113.40
2022-11-23T19:56:39.761Z,66.60
2022-11-23T19:58:57.194Z,174.80
2022-11-23T20:01:13.778Z,132.40
2022-11-23T20:03:27.411Z,150.50
2022-11-23T20:05:42.183Z,110.80
2022-11-23T20:07:55.688Z,98.00
2022-11-23T20:10:09.672Z,107.30
2022-11-23T20:12:23.113Z,104.40
2022-11-23T20:14:36.386Z,69.10
2022-11-23T20:16:50.022Z,51.20
2022-11-23T20:19:05.247Z,71.60
2022-11-23T20:21:19.767Z,59.70
2022-11-23T20:23:33.186Z,72.80
2022-11-23T20:25:46.775Z,65.90
2022-11-23T20:28:00.214Z,60.60
2022-11-23T20:30:14.779Z,55.90
2022-11-23T20:32:28.270Z,45.00
2022-11-23T20:34:41.649Z,30.20
2022-11-23T20:36:55.050Z,37.20
2022-11-23T20:39:11.066Z,34.40
2022-11-23T20:41:27.464Z,43.40
2022-11-23T20:43:41.226Z,32.00
2022-11-23T20:45:54.673Z,22.50
2022-11-23T20:48:08.479Z,19.90
2022-11-23T20:50:26.173Z,17.60
2022-11-23T20:52:39.922Z,15.70
2022-11-23T20:54:53.251Z,13.80
2022-11-23T20:57:06.581Z,9.00
2022-11-23T20:59:20.926Z,9.50
2022-11-23T21:01:34.406Z,13.40
2022-11-23T21:03:52.732Z,7.40
2022-11-23T21:06:09.444Z,5.70
2022-11-23T21:08:31.607Z,6.80
2022-11-23T21:11:04.257Z,4.90
2022-11-23T21:13:48.932Z,9.80
2022-11-23T21:16:10.459Z,9.00
2022-11-23T21:18:24.084Z,4.80
2022-11-23T21:20:37.561Z,8.50
2022-11-23T21:22:51.018Z,5.80
2022-11-23T21:25:04.625Z,4.20
2022-11-23T21:27:24.269Z,4.80
2022-11-23T21:29:38.173Z,6.10
2022-11-23T21:31:52.876Z,4.80
2022-11-23T21:34:08.280Z,4.80
2022-11-23T21:36:23.524Z,2.20
2022-11-23T21:38:37.558Z,5.00
2022-11-23T21:40:50.839Z,4.60
2022-11-23T21:43:04.283Z,2.80
2022-11-23T21:45:18.287Z,3.30
2022-11-23T21:47:32.075Z,1.90
2022-11-23T21:49:45.344Z,3.40
2022-11-23T21:51:58.581Z,6.70
2022-11-23T21:54:15.264Z,2.50
2022-11-23T21:56:29.150Z,2.30
2022-11-23T21:58:42.601Z,2.00
2022-11-23T22:00:55.889Z,1.60
2022-11-23T22:03:12.665Z,3.10
2022-11-23T22:05:25.932Z,5.50
2022-11-23T22:07:47.397Z,3.40
2022-11-23T22:10:08.795Z,1.80
2022-11-23T22:12:22.411Z,5.40
2022-11-23T22:14:35.793Z,1.70
2022-11-23T22:16:50.779Z,2.70
2022-11-23T22:19:04.822Z,1.70
2022-11-23T22:21:18.932Z,5.20
2022-11-23T22:23:32.347Z,2.10
2022-11-23T22:25:48.257Z,1.10
2022-11-23T22:28:01.767Z,2.00
2022-11-23T22:30:17.469Z,3.50
2022-11-23T22:32:30.841Z,2.80
2022-11-23T22:34:45.042Z,1.60
2022-11-23T22:36:58.435Z,2.80
2022-11-23T22:39:13.004Z,2.90
2022-11-23T22:41:26.557Z,2.10
2022-11-23T22:43:40.567Z,4.10
2022-11-23T22:45:53.850Z,3.50
2022-11-23T22:48:07.552Z,1.00
2022-11-23T22:50:22.173Z,1.70
2022-11-23T22:52:35.399Z,2.30
2022-11-23T22:54:48.624Z,3.40
2022-11-23T22:57:01.777Z,4.80
2022-11-23T22:59:15.065Z,2.10
2022-11-23T23:01:29.719Z,2.10
2022-11-23T23:03:43.370Z,2.90
2022-11-23T23:06:02.311Z,1.50
2022-11-23T23:08:15.686Z,2.60
2022-11-23T23:10:29.224Z,3.00
2022-11-23T23:12:42.494Z,3.10
2022-11-23T23:14:55.779Z,4.60
2022-11-23T23:17:09.151Z,2.80
2022-11-23T23:19:22.761Z,3.70
2022-11-23T23:21:36.084Z,6.20
2022-11-23T23:23:50.457Z,2.50
2022-11-23T23:26:04.035Z,3.40
2022-11-23T23:28:17.367Z,2.40
2022-11-23T23:30:30.408Z,6.30
2022-11-23T23:32:43.856Z,2.80
2022-11-23T23:34:57.152Z,3.70
2022-11-23T23:37:10.938Z,1.60
2022-11-23T23:39:24.179Z,3.00
2022-11-23T23:41:37.878Z,2.60
2022-11-23T23:43:51.206Z,3.90
2022-11-23T23:46:06.005Z,3.10
2022-11-23T23:48:19.373Z,2.90
2022-11-23T23:50:32.692Z,2.40
2022-11-23T23:52:46.403Z,3.00
2022-11-23T23:54:59.733Z,3.00
2022-11-23T23:57:13.003Z,3.20
2022-11-23T23:59:27.234Z,2.10
